Time;durP1;ratioP1;P1;durP2;ratioP2;P2;SDS_P1;SDS_P2;PMS_P1;PMS_P2;Temp;Humidity;BMP_temperature;BMP_pressure;BME280_temperature;BME280_humidity;BME280_pressure;Samples;Min_cycle;Max_cycle;Signal;HPM_P1;HPM_P2
2023/04/22 00:02:02;;;;;;;5.15;3.65;;;11.30;88.70;;;;;;5113004;28;20117;-73
2023/04/22 00:04:28;;;;;;;4.20;2.78;;;11.30;89.30;;;;;;5112143;28;20024;-73
2023/04/22 00:06:54;;;;;;;5.57;2.97;;;11.30;89.00;;;;;;5111869;28;20067;-73
2023/04/22 00:09:20;;;;;;;6.03;3.67;;;11.20;88.80;;;;;;5112937;28;20032;-73
2023/04/22 00:11:45;;;;;;;3.45;2.40;;;11.20;88.80;;;;;;5112992;28;20039;-73
2023/04/22 00:14:11;;;;;;;3.53;2.47;;;11.20;88.50;;;;;;5113219;28;20031;-73
2023/04/22 00:16:37;;;;;;;3.92;2.47;;;11.10;88.30;;;;;;5082104;28;20059;-73
2023/04/22 00:19:04;;;;;;;3.58;2.65;;;11.10;88.10;;;;;;5115681;28;20024;-73
2023/04/22 00:21:31;;;;;;;2.53;1.90;;;11.10;88.10;;;;;;5115629;28;20024;-73
2023/04/22 00:23:57;;;;;;;3.05;2.10;;;11.10;87.90;;;;;;5115620;28;20040;-73
2023/04/22 00:26:23;;;;;;;4.00;2.35;;;11.00;87.70;;;;;;5115539;28;20028;-73
2023/04/22 00:28:48;;;;;;;3.90;2.67;;;11.00;87.60;;;;;;5115373;28;20024;-73
2023/04/22 00:31:14;;;;;;;3.92;2.90;;;10.90;88.00;;;;;;5116397;28;20020;-72
2023/04/22 00:33:40;;;;;;;5.60;2.67;;;10.90;88.60;;;;;;5115220;28;20104;-73
2023/04/22 00:36:06;;;;;;;3.38;2.65;;;10.90;88.80;;;;;;5116320;28;20076;-73
2023/04/22 00:38:31;;;;;;;4.32;2.83;;;10.90;89.10;;;;;;5115139;28;20166;-73
2023/04/22 00:40:57;;;;;;;3.22;2.22;;;11.00;89.20;;;;;;5116174;28;20067;-73
2023/04/22 00:43:23;;;;;;;4.13;2.97;;;11.00;89.20;;;;;;5116238;28;20086;-73
2023/04/22 00:45:49;;;;;;;5.43;3.22;;;11.00;89.30;;;;;;5116052;28;20032;-72
2023/04/22 00:48:15;;;;;;;6.30;3.45;;;11.00;89.40;;;;;;5115954;28;20024;-73
2023/04/22 00:50:40;;;;;;;4.97;2.70;;;11.00;89.50;;;;;;5116012;28;20035;-72
2023/04/22 00:53:06;;;;;;;3.90;2.67;;;11.00;89.40;;;;;;5116075;28;20020;-73
2023/04/22 00:55:32;;;;;;;4.68;2.50;;;10.90;89.00;;;;;;5115125;28;20088;-73
2023/04/22 00:58:01;;;;;;;5.25;3.70;;;10.80;89.20;;;;;;5115839;28;20020;-73
2023/04/22 01:00:28;;;;;;;4.45;2.55;;;10.80;89.50;;;;;;5114601;28;20052;-73
2023/04/22 01:02:54;;;;;;;4.82;2.58;;;10.80;89.60;;;;;;5115819;28;20043;-73
2023/04/22 01:05:21;;;;;;;4.45;2.83;;;10.80;89.20;;;;;;5115779;28;20031;-73
2023/04/22 01:07:47;;;;;;;5.43;3.20;;;10.80;89.30;;;;;;5115640;28;20028;-73
2023/04/22 01:10:12;;;;;;;4.38;2.65;;;10.80;89.40;;;;;;5114629;28;20035;-73
2023/04/22 01:12:38;;;;;;;4.50;2.70;;;10.70;89.50;;;;;;5115584;28;20024;-73
2023/04/22 01:15:04;;;;;;;4.53;2.90;;;10.80;89.60;;;;;;5114599;28;20050;-73
2023/04/22 01:17:33;;;;;;;3.15;2.20;;;10.80;89.80;;;;;;5114457;28;20028;-73
2023/04/22 01:19:58;;;;;;;5.30;3.50;;;10.80;90.00;;;;;;5115461;28;20020;-73
2023/04/22 01:22:26;;;;;;;7.13;3.17;;;10.70;90.20;;;;;;5114480;28;20035;-73
2023/04/22 01:24:53;;;;;;;4.82;3.00;;;10.70;90.30;;;;;;5115354;28;20017;-73
2023/04/22 01:27:19;;;;;;;4.40;3.03;;;10.70;90.30;;;;;;5114186;28;20114;-72
2023/04/22 01:29:45;;;;;;;3.13;1.95;;;10.70;90.40;;;;;;5114215;28;20028;-73
2023/04/22 01:32:10;;;;;;;3.30;2.50;;;10.70;90.40;;;;;;5115255;28;20016;-73
2023/04/22 01:34:36;;;;;;;3.95;2.47;;;10.70;90.20;;;;;;5115087;28;20032;-73
2023/04/22 01:37:02;;;;;;;4.22;2.80;;;10.70;90.20;;;;;;5115083;28;20110;-72
2023/04/22 01:39:28;;;;;;;4.32;2.92;;;10.70;90.20;;;;;;5115031;28;20024;-73
2023/04/22 01:41:55;;;;;;;4.75;2.85;;;10.80;90.20;;;;;;5115017;28;20020;-73
2023/04/22 01:44:21;;;;;;;4.50;2.72;;;10.80;90.30;;;;;;5114986;28;20053;-73
2023/04/22 01:46:47;;;;;;;5.40;3.17;;;10.70;90.30;;;;;;5114875;28;20028;-73
2023/04/22 01:49:12;;;;;;;5.43;3.17;;;10.70;90.40;;;;;;5114872;28;20031;-73
2023/04/22 01:51:38;;;;;;;4.85;3.25;;;10.80;90.50;;;;;;5114825;28;20027;-73
2023/04/22 01:54:04;;;;;;;5.00;3.08;;;10.90;90.40;;;;;;5113767;28;20519;-73
2023/04/22 01:56:30;;;;;;;3.28;2.30;;;10.90;90.40;;;;;;5113687;28;20119;-73
2023/04/22 01:58:55;;;;;;;2.92;2.03;;;10.90;90.30;;;;;;5114533;28;20028;-73
2023/04/22 02:01:21;;;;;;;4.38;2.67;;;10.90;90.20;;;;;;5096766;28;20039;-73
2023/04/22 02:03:47;;;;;;;4.30;3.08;;;10.80;90.20;;;;;;5114584;28;20095;-72
2023/04/22 02:06:12;;;;;;;6.28;3.30;;;10.80;90.30;;;;;;5113645;28;20036;-73
2023/04/22 02:08:38;;;;;;;5.28;3.30;;;10.80;90.40;;;;;;5114419;28;20046;-72
2023/04/22 02:11:04;;;;;;;6.15;3.72;;;10.80;90.50;;;;;;5114448;28;20107;-73
2023/04/22 02:13:39;;;;;;;6.85;4.60;;;10.80;90.70;;;;;;5114452;28;20046;-73
2023/04/22 02:16:06;;;;;;;6.70;4.25;;;10.70;90.80;;;;;;5113508;28;20034;-73
2023/04/22 02:18:32;;;;;;;6.63;4.40;;;10.80;90.90;;;;;;5114484;28;20044;-73
2023/04/22 02:20:58;;;;;;;8.15;5.00;;;10.80;91.00;;;;;;5113406;28;20028;-73
2023/04/22 02:23:25;;;;;;;7.05;4.43;;;10.80;90.90;;;;;;5114255;28;20059;-73
2023/04/22 02:25:51;;;;;;;7.95;4.88;;;10.90;91.00;;;;;;5113190;28;20561;-73
2023/04/22 02:28:18;;;;;;;6.45;4.40;;;10.80;91.10;;;;;;5114067;28;20031;-73
2023/04/22 02:30:44;;;;;;;7.03;4.53;;;10.80;91.30;;;;;;5114111;28;20019;-73
2023/04/22 02:33:10;;;;;;;6.75;4.30;;;10.80;91.30;;;;;;5113976;28;20089;-73
2023/04/22 02:35:35;;;;;;;7.05;4.20;;;10.80;91.40;;;;;;5096092;28;20020;-73
2023/04/22 02:38:01;;;;;;;6.57;4.20;;;10.80;91.40;;;;;;5113718;28;20477;-73
2023/04/22 02:40:27;;;;;;;6.45;4.25;;;10.80;91.40;;;;;;5113947;28;20036;-73
2023/04/22 02:42:53;;;;;;;7.80;4.70;;;10.80;91.50;;;;;;5112903;28;20059;-73
2023/04/22 02:45:18;;;;;;;7.13;4.47;;;10.80;91.50;;;;;;5112976;28;20039;-73
2023/04/22 02:47:44;;;;;;;7.07;4.57;;;10.80;91.60;;;;;;5095865;28;20035;-73
2023/04/22 02:50:10;;;;;;;7.47;4.45;;;10.80;91.60;;;;;;5113794;28;20111;-73
2023/04/22 02:52:35;;;;;;;7.60;4.75;;;10.80;91.60;;;;;;5113733;28;20058;-73
2023/04/22 02:55:01;;;;;;;7.95;4.68;;;10.80;91.70;;;;;;5113729;28;20037;-73
2023/04/22 02:57:26;;;;;;;8.30;5.07;;;10.90;91.60;;;;;;5113682;28;20083;-73
2023/04/22 02:59:52;;;;;;;7.50;4.88;;;10.80;91.60;;;;;;5113585;28;20064;-73
2023/04/22 03:02:18;;;;;;;9.55;5.30;;;10.80;91.60;;;;;;5113647;28;20111;-73
2023/04/22 03:04:44;;;;;;;8.20;5.35;;;10.80;91.70;;;;;;5113604;28;20039;-73
2023/04/22 03:07:10;;;;;;;8.57;5.38;;;10.80;91.80;;;;;;5113555;28;20083;-73
2023/04/22 03:09:35;;;;;;;10.10;5.60;;;10.90;91.90;;;;;;5113549;28;20020;-73
2023/04/22 03:12:01;;;;;;;10.18;5.82;;;10.80;92.00;;;;;;5113515;28;20024;-73
2023/04/22 03:14:27;;;;;;;10.25;6.18;;;10.80;92.00;;;;;;5113509;28;20040;-73
2023/04/22 03:16:53;;;;;;;10.65;6.47;;;10.80;92.00;;;;;;5113485;28;20074;-73
2023/04/22 03:19:19;;;;;;;10.60;5.85;;;10.80;92.30;;;;;;5113454;28;20024;-73
2023/04/22 03:21:44;;;;;;;10.60;6.20;;;10.80;92.30;;;;;;5113425;28;20020;-73
2023/04/22 03:24:10;;;;;;;11.98;6.85;;;10.80;92.40;;;;;;5112454;28;20020;-73
2023/04/22 03:26:35;;;;;;;11.88;7.15;;;10.70;92.50;;;;;;5113295;28;20042;-73
2023/04/22 03:29:01;;;;;;;14.38;7.45;;;10.70;92.60;;;;;;5113353;28;20031;-73
2023/04/22 03:31:27;;;;;;;12.32;7.05;;;10.70;92.70;;;;;;5112374;28;20032;-73
2023/04/22 03:33:52;;;;;;;12.10;7.15;;;10.80;92.70;;;;;;5113355;28;20024;-73
2023/04/22 03:36:18;;;;;;;12.63;7.50;;;10.80;92.70;;;;;;5113282;28;20043;-73
2023/04/22 03:38:44;;;;;;;13.40;7.38;;;10.80;92.70;;;;;;5113408;28;20028;-73
2023/04/22 03:41:09;;;;;;;15.27;8.02;;;10.80;92.80;;;;;;5113245;28;20027;-73
2023/04/22 03:43:35;;;;;;;15.35;7.53;;;10.80;92.80;;;;;;5113348;28;20493;-73
2023/04/22 03:46:01;;;;;;;18.77;8.25;;;10.80;92.80;;;;;;5112458;28;20035;-73
2023/04/22 03:48:28;;;;;;;13.82;8.45;;;10.80;92.80;;;;;;5112075;28;20035;-73
2023/04/22 03:50:54;;;;;;;14.13;7.90;;;10.80;92.90;;;;;;5116374;28;20020;-73
2023/04/22 03:53:20;;;;;;;12.02;7.72;;;10.80;92.90;;;;;;5117136;28;20042;-73
2023/04/22 03:55:46;;;;;;;14.10;8.27;;;10.80;92.90;;;;;;5116159;28;20482;-73
2023/04/22 03:58:11;;;;;;;14.45;8.63;;;10.80;92.90;;;;;;5116081;28;20024;-73
2023/04/22 04:00:37;;;;;;;15.63;8.48;;;10.80;92.80;;;;;;5115858;28;20052;-73
2023/04/22 04:03:02;;;;;;;16.40;9.52;;;10.80;92.90;;;;;;5116912;28;20033;-73
2023/04/22 04:05:28;;;;;;;13.88;8.90;;;10.70;93.00;;;;;;5116864;28;20024;-73
2023/04/22 04:07:54;;;;;;;16.85;9.52;;;10.60;93.30;;;;;;5116739;28;20036;-73
2023/04/22 04:10:19;;;;;;;15.98;9.63;;;10.60;93.50;;;;;;5115921;28;20042;-73
2023/04/22 04:12:45;;;;;;;18.77;10.32;;;10.50;93.70;;;;;;5115881;28;20025;-73
2023/04/22 04:15:10;;;;;;;19.50;10.73;;;10.50;93.90;;;;;;5116724;28;20497;-72
2023/04/22 04:17:36;;;;;;;18.67;10.23;;;10.50;93.90;;;;;;5116656;28;20039;-73
2023/04/22 04:20:02;;;;;;;21.42;10.63;;;10.50;93.90;;;;;;5116623;28;20035;-73
2023/04/22 04:22:28;;;;;;;18.83;10.02;;;10.50;94.00;;;;;;5116547;28;20036;-73
2023/04/22 04:24:54;;;;;;;17.95;10.05;;;10.60;94.00;;;;;;5116562;28;20050;-73
2023/04/22 04:27:22;;;;;;;17.88;10.07;;;10.60;93.90;;;;;;5116426;28;20081;-73
2023/04/22 04:29:48;;;;;;;18.10;10.60;;;10.70;93.90;;;;;;5116453;28;20080;-73
2023/04/22 04:32:14;;;;;;;19.50;11.57;;;10.70;94.00;;;;;;5116431;28;20031;-73
2023/04/22 04:34:41;;;;;;;17.58;10.50;;;10.60;94.10;;;;;;5116219;28;20044;-73
2023/04/22 04:37:07;;;;;;;21.10;11.75;;;10.60;94.10;;;;;;5115381;28;20051;-73
2023/04/22 04:39:32;;;;;;;19.90;11.13;;;10.60;94.10;;;;;;5116270;28;20039;-73
2023/04/22 04:41:59;;;;;;;21.38;11.38;;;10.60;94.10;;;;;;5116159;28;20028;-73
2023/04/22 04:44:30;;;;;;;19.50;11.48;;;10.70;94.30;;;;;;5116176;28;20489;-73
2023/04/22 04:46:56;;;;;;;19.38;11.18;;;10.60;94.10;;;;;;5116093;28;20035;-73
2023/04/22 04:49:22;;;;;;;22.55;12.30;;;10.70;94.10;;;;;;5116051;28;20032;-73
2023/04/22 04:51:48;;;;;;;20.30;10.57;;;10.70;94.00;;;;;;5116011;28;20017;-73
2023/04/22 04:54:14;;;;;;;19.02;10.75;;;10.70;94.00;;;;;;5115002;28;20024;-73
2023/04/22 04:56:40;;;;;;;22.27;11.25;;;10.70;93.90;;;;;;5098177;28;20027;-73
2023/04/22 04:59:06;;;;;;;23.73;12.20;;;10.70;93.90;;;;;;5097987;28;20024;-73
2023/04/22 05:01:31;;;;;;;24.88;12.48;;;10.70;94.10;;;;;;5114751;28;20094;-73
2023/04/22 05:03:57;;;;;;;21.15;11.63;;;10.70;94.10;;;;;;5114932;28;20032;-73
2023/04/22 05:06:23;;;;;;;22.38;12.02;;;10.70;94.20;;;;;;5115744;28;20028;-73
2023/04/22 05:08:48;;;;;;;27.30;14.13;;;10.70;94.20;;;;;;5115602;28;20032;-73
2023/04/22 05:11:14;;;;;;;22.52;12.85;;;10.70;94.30;;;;;;5115664;28;20031;-73
2023/04/22 05:13:39;;;;;;;24.27;13.00;;;10.60;94.40;;;;;;5115622;28;20042;-73
2023/04/22 05:16:05;;;;;;;23.02;12.95;;;10.70;94.50;;;;;;5115563;28;20078;-73
2023/04/22 05:18:31;;;;;;;22.58;13.20;;;10.70;94.40;;;;;;5114694;28;20028;-73
2023/04/22 05:20:59;;;;;;;22.38;11.80;;;10.70;94.50;;;;;;5115431;28;20032;-73
2023/04/22 05:23:25;;;;;;;22.90;12.45;;;10.70;94.40;;;;;;5114411;28;20028;-73
2023/04/22 05:25:51;;;;;;;22.45;12.80;;;10.70;94.30;;;;;;5115334;28;20488;-73
2023/04/22 05:28:16;;;;;;;23.95;12.07;;;10.70;94.30;;;;;;5115195;28;20044;-73
2023/04/22 05:30:42;;;;;;;24.23;12.70;;;10.80;94.20;;;;;;5114335;28;20028;-73
2023/04/22 05:33:08;;;;;;;27.17;13.52;;;10.80;94.20;;;;;;5115077;28;20031;-73
2023/04/22 05:35:34;;;;;;;24.98;13.52;;;10.80;94.30;;;;;;5114284;28;20017;-73
2023/04/22 05:38:01;;;;;;;26.92;14.52;;;10.80;94.30;;;;;;5114063;28;20047;-73
2023/04/22 05:40:27;;;;;;;23.83;12.38;;;10.80;94.60;;;;;;5114038;28;20032;-73
2023/04/22 05:42:53;;;;;;;23.55;13.20;;;10.70;94.60;;;;;;5114987;28;20035;-73
2023/04/22 05:45:18;;;;;;;26.50;14.20;;;10.80;94.60;;;;;;5114957;28;20079;-73
2023/04/22 05:47:44;;;;;;;29.88;14.95;;;10.80;94.80;;;;;;5114837;28;20028;-73
2023/04/22 05:50:10;;;;;;;25.48;14.27;;;10.80;94.70;;;;;;5113852;28;20032;-73
2023/04/22 05:52:35;;;;;;;25.48;14.25;;;10.90;94.80;;;;;;5114832;28;20039;-73
2023/04/22 05:55:01;;;;;;;26.33;14.02;;;10.90;94.80;;;;;;5114753;28;20025;-73
2023/04/22 05:57:26;;;;;;;28.30;14.57;;;11.00;94.90;;;;;;5114717;28;20089;-73
2023/04/22 05:59:52;;;;;;;28.42;14.68;;;11.00;94.80;;;;;;5113542;28;20048;-73
2023/04/22 06:02:18;;;;;;;28.88;14.85;;;11.00;94.90;;;;;;5113685;28;20039;-73
2023/04/22 06:04:43;;;;;;;27.95;15.13;;;11.00;94.90;;;;;;5113615;28;20032;-73
2023/04/22 06:07:09;;;;;;;25.35;15.00;;;11.00;95.10;;;;;;5114583;28;20035;-73
2023/04/22 06:09:35;;;;;;;28.20;14.88;;;11.00;95.10;;;;;;5114534;28;20043;-73
2023/04/22 06:12:01;;;;;;;30.67;15.65;;;11.00;95.10;;;;;;5113903;28;20110;-73
2023/04/22 06:14:26;;;;;;;32.55;16.40;;;11.00;95.10;;;;;;5113464;28;20088;-73
2023/04/22 06:16:52;;;;;;;32.25;16.85;;;11.10;95.20;;;;;;5113363;28;20020;-73
2023/04/22 06:19:18;;;;;;;28.58;15.32;;;11.10;95.20;;;;;;5113313;28;20111;-73
2023/04/22 06:21:44;;;;;;;30.30;15.43;;;11.20;95.20;;;;;;5113313;28;20008;-73
2023/04/22 06:24:10;;;;;;;29.05;16.15;;;11.20;95.50;;;;;;5114386;28;20523;-73
2023/04/22 06:26:36;;;;;;;31.95;16.45;;;11.20;95.50;;;;;;5114324;28;20036;-73
2023/04/22 06:29:04;;;;;;;32.75;16.55;;;11.20;95.60;;;;;;5114092;28;20024;-73
2023/04/22 06:31:33;;;;;;;38.47;16.52;;;11.30;96.00;;;;;;5113264;28;20023;-73
2023/04/22 06:33:58;;;;;;;34.78;17.15;;;11.30;96.00;;;;;;5113967;28;20076;-73
2023/04/22 06:36:25;;;;;;;34.80;17.40;;;11.30;96.30;;;;;;5096096;28;20020;-73
2023/04/22 06:38:50;;;;;;;30.77;16.13;;;11.30;96.50;;;;;;5114010;28;20039;-73
2023/04/22 06:41:16;;;;;;;37.22;17.20;;;11.20;96.90;;;;;;5113939;28;20028;-73
2023/04/22 06:43:42;;;;;;;30.58;15.75;;;11.30;96.80;;;;;;5113123;28;20025;-73
2023/04/22 06:46:08;;;;;;;31.63;15.80;;;11.40;96.90;;;;;;5113834;28;20032;-73
2023/04/22 06:48:34;;;;;;;34.15;16.70;;;11.40;97.20;;;;;;5113772;28;20032;-73
2023/04/22 06:51:00;;;;;;;36.05;18.05;;;11.40;97.00;;;;;;5113899;28;20028;-73
2023/04/22 06:53:26;;;;;;;30.00;16.75;;;11.50;97.20;;;;;;5112716;28;20028;-73
2023/04/22 06:55:53;;;;;;;28.05;14.70;;;11.50;97.30;;;;;;5113622;28;20020;-73
2023/04/22 06:58:20;;;;;;;31.48;16.02;;;11.50;97.10;;;;;;5112731;28;20024;-73
2023/04/22 07:00:45;;;;;;;33.10;17.67;;;11.50;97.30;;;;;;5113419;28;20044;-73
2023/04/22 07:03:11;;;;;;;29.63;15.75;;;11.70;97.40;;;;;;5113615;28;20033;-73
2023/04/22 07:05:37;;;;;;;28.70;15.70;;;11.70;97.50;;;;;;5113617;28;20028;-73
2023/04/22 07:08:02;;;;;;;31.52;16.15;;;11.80;97.20;;;;;;5112465;28;20032;-74
2023/04/22 07:10:28;;;;;;;31.17;15.93;;;11.90;97.70;;;;;;5113680;28;20044;-73
2023/04/22 07:12:53;;;;;;;28.13;15.48;;;12.00;97.50;;;;;;5112593;28;20025;-73
2023/04/22 07:15:19;;;;;;;29.70;16.45;;;12.00;97.30;;;;;;5095719;28;20024;-73
2023/04/22 07:17:45;;;;;;;28.05;15.05;;;12.10;97.60;;;;;;5112540;28;20056;-73
2023/04/22 07:20:10;;;;;;;29.85;15.32;;;12.20;97.20;;;;;;5113594;28;20054;-73
2023/04/22 07:22:36;;;;;;;27.98;15.45;;;12.30;96.90;;;;;;5113581;28;20033;-73
2023/04/22 07:25:03;;;;;;;26.77;14.63;;;12.30;97.10;;;;;;5115224;28;20032;-72
2023/04/22 07:27:29;;;;;;;28.10;14.40;;;12.40;97.10;;;;;;5116544;28;20016;-73
2023/04/22 07:29:54;;;;;;;25.45;13.45;;;12.50;97.10;;;;;;5117539;28;20020;-73
2023/04/22 07:32:20;;;;;;;22.75;12.50;;;12.60;96.80;;;;;;5116515;28;20036;-73
2023/04/22 07:34:45;;;;;;;23.63;13.25;;;12.70;97.10;;;;;;5116444;28;20039;-73
2023/04/22 07:37:11;;;;;;;21.90;13.30;;;12.80;96.60;;;;;;5117451;28;20050;-74
2023/04/22 07:39:36;;;;;;;25.35;13.02;;;12.90;96.30;;;;;;5099423;28;20032;-74
2023/04/22 07:42:02;;;;;;;23.33;13.00;;;13.10;96.60;;;;;;5099442;28;20081;-74
2023/04/22 07:44:28;;;;;;;22.75;12.35;;;13.20;96.90;;;;;;5099557;28;20032;-74
2023/04/22 07:46:54;;;;;;;21.27;12.13;;;13.20;96.40;;;;;;5117308;28;20024;-74
2023/04/22 07:49:20;;;;;;;22.48;12.75;;;13.30;96.10;;;;;;5116254;28;20049;-73
2023/04/22 07:51:45;;;;;;;22.13;12.07;;;13.30;96.30;;;;;;5116132;28;20064;-74
2023/04/22 07:54:11;;;;;;;20.42;10.77;;;13.40;96.00;;;;;;5117140;28;20043;-73
2023/04/22 07:56:37;;;;;;;20.50;11.48;;;13.40;96.00;;;;;;5117075;28;20020;-74
2023/04/22 07:59:03;;;;;;;21.88;11.55;;;13.40;95.60;;;;;;5116000;28;20500;-74
2023/04/22 08:01:29;;;;;;;20.70;12.52;;;13.50;96.30;;;;;;5115853;28;20063;-73
2023/04/22 08:03:55;;;;;;;19.63;11.43;;;13.60;96.20;;;;;;5116988;28;20028;-73
2023/04/22 08:06:20;;;;;;;21.20;11.43;;;13.70;95.80;;;;;;5116944;28;20513;-73
2023/04/22 08:08:46;;;;;;;19.08;11.07;;;13.90;96.10;;;;;;5115837;28;20043;-73
2023/04/22 08:11:12;;;;;;;19.70;10.65;;;14.00;95.70;;;;;;5116810;28;20028;-73
2023/04/22 08:13:37;;;;;;;19.38;10.98;;;14.00;95.30;;;;;;5116780;28;20047;-73
2023/04/22 08:16:03;;;;;;;17.48;10.27;;;14.10;95.00;;;;;;5116756;28;20496;-73
2023/04/22 08:18:29;;;;;;;18.83;10.25;;;14.20;94.40;;;;;;5116682;28;20024;-73
2023/04/22 08:20:55;;;;;;;16.55;10.50;;;14.30;94.20;;;;;;5116593;28;20028;-73
2023/04/22 08:23:21;;;;;;;17.73;10.80;;;14.30;93.90;;;;;;5115553;28;20028;-73
2023/04/22 08:25:47;;;;;;;15.65;9.93;;;14.40;93.90;;;;;;5116605;28;20047;-73
2023/04/22 08:28:13;;;;;;;17.15;10.73;;;14.40;93.70;;;;;;5116403;28;20024;-73
2023/04/22 08:30:39;;;;;;;18.00;10.20;;;14.40;93.50;;;;;;5116468;28;20020;-73
2023/04/22 08:33:05;;;;;;;16.75;10.77;;;14.50;93.80;;;;;;5115336;28;20055;-73
2023/04/22 08:35:33;;;;;;;19.00;10.52;;;14.50;93.80;;;;;;5115944;28;20037;-73
2023/04/22 08:37:58;;;;;;;17.75;10.30;;;14.60;94.10;;;;;;5116324;28;20069;-73
2023/04/22 08:40:24;;;;;;;16.90;10.38;;;14.70;94.00;;;;;;5115387;28;20020;-73
2023/04/22 08:42:51;;;;;;;17.25;10.82;;;14.80;93.30;;;;;;5116150;28;20034;-73
2023/04/22 08:45:17;;;;;;;19.77;10.77;;;14.80;92.90;;;;;;5115253;28;20028;-73
2023/04/22 08:47:43;;;;;;;17.08;10.00;;;14.90;92.70;;;;;;5081421;28;20032;-73
2023/04/22 08:50:09;;;;;;;16.73;9.25;;;15.00;92.80;;;;;;5116070;28;20031;-73
2023/04/22 08:52:35;;;;;;;17.65;9.98;;;15.10;92.00;;;;;;5116084;28;20024;-73
2023/04/22 08:55:00;;;;;;;17.52;9.57;;;15.20;92.20;;;;;;5115987;28;20032;-73
2023/04/22 08:57:27;;;;;;;15.80;8.98;;;15.30;91.20;;;;;;5115952;28;20043;-73
2023/04/22 08:59:55;;;;;;;17.17;11.05;;;15.40;91.70;;;;;;5115691;28;20100;-73
2023/04/22 09:02:22;;;;;;;16.05;10.05;;;15.40;92.00;;;;;;5115873;28;20027;-73
2023/04/22 09:04:49;;;;;;;15.65;8.85;;;15.50;91.30;;;;;;5115800;28;20031;-73
2023/04/22 09:07:31;;;;;;;18.02;9.90;;;15.50;91.40;;;;;;5115697;28;20051;-73
2023/04/22 09:09:58;;;;;;;13.98;8.30;;;15.70;91.10;;;;;;5115763;28;20027;-73
2023/04/22 09:12:27;;;;;;;15.77;8.82;;;15.80;91.10;;;;;;5115820;28;20457;-73
2023/04/22 09:14:53;;;;;;;14.40;8.20;;;15.90;90.90;;;;;;5114618;28;20017;-73
2023/04/22 09:17:33;;;;;;;13.57;8.50;;;15.90;90.70;;;;;;5114634;28;20032;-73
2023/04/22 09:20:00;;;;;;;12.60;8.20;;;16.10;90.50;;;;;;5115544;28;20021;-73
2023/04/22 09:22:46;;;;;;;13.65;8.43;;;16.20;90.60;;;;;;5115430;28;20032;-73
2023/04/22 09:25:17;;;;;;;15.98;8.95;;;16.30;90.80;;;;;;5115448;28;20020;-73
2023/04/22 09:27:46;;;;;;;11.95;7.82;;;16.40;89.70;;;;;;5114290;28;20032;-73
2023/04/22 09:30:13;;;;;;;11.88;7.03;;;16.40;89.20;;;;;;5115288;28;20024;-73
2023/04/22 09:32:39;;;;;;;12.55;8.05;;;16.50;87.10;;;;;;5114328;28;20054;-73
2023/04/22 09:35:05;;;;;;;12.05;7.70;;;16.50;87.60;;;;;;5115160;28;20020;-73
2023/04/22 09:37:32;;;;;;;12.90;7.20;;;16.50;88.40;;;;;;5115186;28;20028;-73
2023/04/22 09:39:58;;;;;;;10.55;7.32;;;16.50;86.40;;;;;;5115132;28;20028;-73
2023/04/22 09:42:24;;;;;;;10.82;6.85;;;16.50;88.40;;;;;;5114972;28;20020;-73
2023/04/22 09:44:54;;;;;;;10.88;7.07;;;16.70;87.00;;;;;;5114061;28;20473;-73
2023/04/22 09:47:22;;;;;;;10.00;6.47;;;16.80;87.20;;;;;;5114032;28;20059;-73
2023/04/22 09:49:48;;;;;;;12.27;6.32;;;17.00;85.90;;;;;;5114904;28;20028;-73
2023/04/22 09:52:25;;;;;;;9.07;6.57;;;17.00;85.90;;;;;;5114841;28;20028;-73
2023/04/22 09:54:53;;;;;;;10.30;6.55;;;17.10;84.80;;;;;;5114878;28;20027;-73
2023/04/22 09:57:20;;;;;;;9.10;6.15;;;17.10;85.00;;;;;;5114698;28;20024;-73
2023/04/22 09:59:50;;;;;;;9.52;5.25;;;17.30;84.90;;;;;;5114489;28;20062;-74
2023/04/22 10:02:15;;;;;;;11.32;6.85;;;17.40;82.30;;;;;;5114651;28;20028;-73
2023/04/22 10:04:41;;;;;;;11.25;6.72;;;17.50;82.60;;;;;;5113558;28;20035;-73
2023/04/22 10:07:07;;;;;;;10.13;5.78;;;17.60;84.50;;;;;;5114565;28;20067;-73
2023/04/22 10:09:34;;;;;;;8.98;6.80;;;17.60;83.70;;;;;;5114562;28;20020;-73
2023/04/22 10:12:00;;;;;;;12.05;6.70;;;17.70;83.50;;;;;;5114473;28;20024;-73
2023/04/22 10:14:26;;;;;;;11.00;6.60;;;17.80;83.30;;;;;;5114514;28;20034;-73
2023/04/22 10:16:57;;;;;;;11.18;5.75;;;17.80;83.90;;;;;;5113373;28;20100;-73
2023/04/22 10:19:27;;;;;;;9.53;6.07;;;17.90;83.80;;;;;;5114453;28;20020;-73
2023/04/22 10:21:57;;;;;;;8.32;5.25;;;17.90;81.80;;;;;;5114315;28;20028;-73
2023/04/22 10:24:26;;;;;;;7.65;5.55;;;18.10;81.70;;;;;;5114273;28;20028;-73
2023/04/22 10:26:57;;;;;;;7.32;5.22;;;18.20;80.80;;;;;;5114164;28;20016;-73
2023/04/22 10:29:24;;;;;;;7.35;4.85;;;18.20;78.40;;;;;;5114200;28;20079;-73
2023/04/22 10:32:02;;;;;;;6.85;4.63;;;18.20;80.30;;;;;;5114080;28;20415;-73
2023/04/22 10:34:31;;;;;;;9.25;5.25;;;18.10;78.90;;;;;;5114104;28;20028;-73
2023/04/22 10:37:08;;;;;;;7.57;5.60;;;17.90;78.90;;;;;;5114142;28;20051;-73
2023/04/22 10:39:34;;;;;;;8.85;5.70;;;17.90;81.30;;;;;;5114010;28;20016;-73
2023/04/22 10:42:04;;;;;;;10.07;5.70;;;17.90;79.40;;;;;;5113934;28;20016;-73
2023/04/22 10:45:04;;;;;;;8.77;5.70;;;17.90;79.90;;;;;;5113924;28;20019;-73
2023/04/22 10:47:35;;;;;;;8.32;5.30;;;17.90;80.10;;;;;;5113980;28;20480;-73
2023/04/22 10:50:20;;;;;;;9.77;6.23;;;17.80;80.90;;;;;;5113928;28;20084;-73
2023/04/22 10:52:51;;;;;;;9.38;5.53;;;17.80;80.60;;;;;;5113850;28;20020;-73
2023/04/22 10:55:17;;;;;;;9.60;5.82;;;17.90;80.20;;;;;;5113816;28;20024;-74
2023/04/22 10:57:45;;;;;;;9.10;5.85;;;17.90;81.60;;;;;;5113722;28;20485;-73
2023/04/22 11:00:30;;;;;;;12.23;6.63;;;17.90;81.60;;;;;;5112404;28;20052;-74
2023/04/22 11:03:07;;;;;;;10.52;7.18;;;17.90;80.70;;;;;;5113626;28;20045;-74
2023/04/22 11:05:34;;;;;;;11.25;6.53;;;17.90;80.80;;;;;;5113658;28;20020;-74
2023/04/22 11:08:19;;;;;;;10.93;7.40;;;17.90;81.30;;;;;;5112588;28;20405;-73
2023/04/22 11:10:50;;;;;;;10.73;7.03;;;18.00;81.60;;;;;;5113665;28;20028;-74
2023/04/22 11:13:20;;;;;;;10.10;7.05;;;18.00;82.40;;;;;;5113757;28;20047;-74
2023/04/22 11:15:55;;;;;;;8.95;6.63;;;18.00;80.50;;;;;;5113529;28;20035;-73
2023/04/22 11:18:25;;;;;;;9.82;6.85;;;18.20;81.80;;;;;;5113526;28;20053;-73
2023/04/22 11:20:52;;;;;;;9.55;6.60;;;18.30;80.90;;;;;;5113482;28;20024;-74
2023/04/22 11:23:26;;;;;;;9.10;6.72;;;18.30;80.40;;;;;;5112462;28;20032;-73
2023/04/22 11:25:58;;;;;;;10.40;6.70;;;18.30;79.80;;;;;;5113445;28;20046;-74
2023/04/22 11:28:24;;;;;;;9.68;7.25;;;18.30;79.40;;;;;;5113319;28;20532;-74
2023/04/22 11:30:50;;;;;;;10.95;6.82;;;18.20;80.00;;;;;;5113389;28;20012;-74
2023/04/22 11:33:16;;;;;;;9.05;6.72;;;18.20;79.70;;;;;;5113290;28;20042;-74
2023/04/22 11:35:42;;;;;;;8.88;6.70;;;18.10;80.70;;;;;;5113325;28;20016;-74
2023/04/22 11:38:08;;;;;;;11.80;7.72;;;18.00;80.80;;;;;;5112500;28;20036;-73
2023/04/22 11:40:36;;;;;;;11.90;7.25;;;18.00;81.60;;;;;;5113283;28;20034;-74
2023/04/22 11:43:03;;;;;;;11.02;7.45;;;17.90;83.10;;;;;;5113221;28;20381;-74
2023/04/22 11:45:31;;;;;;;11.60;7.35;;;17.80;82.50;;;;;;5113294;28;20028;-74
2023/04/22 11:47:57;;;;;;;12.20;6.28;;;17.80;82.10;;;;;;5113151;28;20027;-74
2023/04/22 11:50:25;;;;;;;10.77;6.30;;;17.80;81.90;;;;;;5113192;28;20087;-74
2023/04/22 11:52:54;;;;;;;8.00;5.78;;;17.90;82.10;;;;;;5113153;28;20016;-74
2023/04/22 11:55:29;;;;;;;10.18;6.70;;;17.90;83.40;;;;;;5113101;28;20020;-74
2023/04/22 11:58:09;;;;;;;9.27;6.43;;;18.00;83.00;;;;;;5113172;28;20047;-74
2023/04/22 12:00:43;;;;;;;10.52;6.00;;;17.90;82.20;;;;;;5112978;28;20051;-74
2023/04/22 12:03:11;;;;;;;11.63;6.22;;;17.90;83.20;;;;;;5113091;28;20020;-74
2023/04/22 12:05:44;;;;;;;8.73;5.93;;;17.90;83.40;;;;;;5112008;28;20044;-74
2023/04/22 12:08:15;;;;;;;9.00;5.90;;;17.80;81.90;;;;;;5111972;28;20106;-74
2023/04/22 12:10:50;;;;;;;9.27;6.22;;;17.80;83.50;;;;;;5114112;28;20070;-74
2023/04/22 12:13:40;;;;;;;8.93;6.40;;;17.70;83.00;;;;;;5116861;28;20024;-74
2023/04/22 12:16:11;;;;;;;9.98;6.28;;;17.70;83.50;;;;;;5116699;28;20028;-74
2023/04/22 12:18:53;;;;;;;10.32;6.07;;;17.70;82.80;;;;;;5116910;28;20038;-74
2023/04/22 12:21:24;;;;;;;9.93;6.63;;;17.70;84.10;;;;;;5116681;28;20032;-73
2023/04/22 12:23:56;;;;;;;9.52;6.53;;;17.70;83.00;;;;;;5116821;28;20016;-74
2023/04/22 12:26:23;;;;;;;11.60;7.65;;;17.70;82.50;;;;;;5116645;28;20079;-74
2023/04/22 12:28:49;;;;;;;10.80;6.85;;;17.80;84.50;;;;;;5116424;28;20050;-74
2023/04/22 12:31:16;;;;;;;10.18;6.95;;;17.80;83.80;;;;;;5116484;28;20016;-74
2023/04/22 12:33:42;;;;;;;12.00;7.72;;;17.80;84.70;;;;;;5116498;28;20024;-74
2023/04/22 12:36:09;;;;;;;9.20;6.15;;;17.80;83.50;;;;;;5116406;28;20024;-74